Terminal Aerodrome Forecast
Issued by NWS Twin Cities, MN

Home | Current Version | Previous Version | Graphics & Text | Print | Product List | Glossary On
Versions: 1 2 3 4 5 6 7 8 9 10 11 12 13 14 15 16 17 18 19
000
FTUS43 KMPX 301902 AAA
TAFSTC
TAF AMD
KSTC 301902Z 3019/0118 35007KT P6SM SCT014 OVC035
      TEMPO 3019/3022 6SM -RASN BR OVC014
     FM302200 36006KT P6SM VCSH OVC008
     FM010000 32008KT 4SM -SN OVC008
     FM010600 32011KT P6SM OVC010
     FM011200 33008KT P6SM OVC015=

USA.gov is the U.S. government's official web portal to all federal, state and local government web resources and services.